sensor_id;sensor_type;location;lat;lon;timestamp;temperature;humidity
2639;DHT22;1329;51.384;7.122;2022-12-13T00:01:17;-1.00;99.90
2639;DHT22;1329;51.384;7.122;2022-12-13T00:03:45;-1.00;99.90
2639;DHT22;1329;51.384;7.122;2022-12-13T00:06:12;-1.00;99.90
2639;DHT22;1329;51.384;7.122;2022-12-13T00:08:41;-1.00;99.90
2639;DHT22;1329;51.384;7.122;2022-12-13T00:11:10;-1.00;99.90
2639;DHT22;1329;51.384;7.122;2022-12-13T00:13:39;-1.00;99.90
2639;DHT22;1329;51.384;7.122;2022-12-13T00:16:10;-1.10;99.90
2639;DHT22;1329;51.384;7.122;2022-12-13T00:18:39;-1.00;99.90
2639;DHT22;1329;51.384;7.122;2022-12-13T00:21:07;-1.10;99.90
2639;DHT22;1329;51.384;7.122;2022-12-13T00:23:36;-1.10;99.90
2639;DHT22;1329;51.384;7.122;2022-12-13T00:26:06;-1.10;99.90
2639;DHT22;1329;51.384;7.122;2022-12-13T00:28:35;-1.10;99.90
2639;DHT22;1329;51.384;7.122;2022-12-13T00:31:03;-1.10;99.90
2639;DHT22;1329;51.384;7.122;2022-12-13T00:33:32;-1.10;99.90
2639;DHT22;1329;51.384;7.122;2022-12-13T00:36:02;-1.10;99.90
2639;DHT22;1329;51.384;7.122;2022-12-13T00:38:32;-1.20;99.90
2639;DHT22;1329;51.384;7.122;2022-12-13T00:41:11;-1.20;99.90
2639;DHT22;1329;51.384;7.122;2022-12-13T00:43:38;-1.20;99.90
2639;DHT22;1329;51.384;7.122;2022-12-13T00:46:06;-1.20;99.90
2639;DHT22;1329;51.384;7.122;2022-12-13T00:48:37;-1.30;99.90
2639;DHT22;1329;51.384;7.122;2022-12-13T00:51:05;-1.20;99.90
2639;DHT22;1329;51.384;7.122;2022-12-13T00:53:33;-1.20;99.90
2639;DHT22;1329;51.384;7.122;2022-12-13T00:56:01;-1.20;99.90
2639;DHT22;1329;51.384;7.122;2022-12-13T00:58:29;-1.30;99.90
2639;DHT22;1329;51.384;7.122;2022-12-13T01:01:02;-1.30;99.90
2639;DHT22;1329;51.384;7.122;2022-12-13T01:03:30;-1.30;99.90
2639;DHT22;1329;51.384;7.122;2022-12-13T01:05:58;-1.30;99.90
2639;DHT22;1329;51.384;7.122;2022-12-13T01:08:26;-1.30;99.90
2639;DHT22;1329;51.384;7.122;2022-12-13T01:10:54;-1.30;99.90
2639;DHT22;1329;51.384;7.122;2022-12-13T01:13:21;-1.30;99.90
2639;DHT22;1329;51.384;7.122;2022-12-13T01:15:49;-1.40;99.90
2639;DHT22;1329;51.384;7.122;2022-12-13T01:18:16;-1.40;99.90
2639;DHT22;1329;51.384;7.122;2022-12-13T01:20:56;-1.40;99.90
2639;DHT22;1329;51.384;7.122;2022-12-13T01:23:24;-1.40;99.90
2639;DHT22;1329;51.384;7.122;2022-12-13T01:25:52;-1.40;99.90
2639;DHT22;1329;51.384;7.122;2022-12-13T01:28:19;-1.50;99.90
2639;DHT22;1329;51.384;7.122;2022-12-13T01:30:54;-1.50;99.90
2639;DHT22;1329;51.384;7.122;2022-12-13T01:33:23;-1.50;99.90
2639;DHT22;1329;51.384;7.122;2022-12-13T01:35:52;-1.50;99.90
2639;DHT22;1329;51.384;7.122;2022-12-13T01:38:19;-1.50;99.90
2639;DHT22;1329;51.384;7.122;2022-12-13T01:40:48;-1.50;99.90
2639;DHT22;1329;51.384;7.122;2022-12-13T01:43:23;-1.40;99.90
2639;DHT22;1329;51.384;7.122;2022-12-13T01:45:50;-1.50;99.90
2639;DHT22;1329;51.384;7.122;2022-12-13T01:48:23;-1.40;99.90
2639;DHT22;1329;51.384;7.122;2022-12-13T01:50:53;-1.50;99.90
2639;DHT22;1329;51.384;7.122;2022-12-13T01:53:26;-1.50;99.90
2639;DHT22;1329;51.384;7.122;2022-12-13T01:55:59;-1.50;99.90
2639;DHT22;1329;51.384;7.122;2022-12-13T01:58:29;-1.50;99.90
2639;DHT22;1329;51.384;7.122;2022-12-13T02:00:57;-1.40;99.90
2639;DHT22;1329;51.384;7.122;2022-12-13T02:03:27;-1.40;99.90
2639;DHT22;1329;51.384;7.122;2022-12-13T02:05:58;-1.40;99.90
2639;DHT22;1329;51.384;7.122;2022-12-13T02:08:27;-1.50;99.90
2639;DHT22;1329;51.384;7.122;2022-12-13T02:10:55;-1.40;99.90
2639;DHT22;1329;51.384;7.122;2022-12-13T02:13:22;-1.50;99.90
2639;DHT22;1329;51.384;7.122;2022-12-13T02:15:56;-1.50;99.90
2639;DHT22;1329;51.384;7.122;2022-12-13T02:18:39;-1.50;99.90
2639;DHT22;1329;51.384;7.122;2022-12-13T02:21:28;-1.60;99.90
2639;DHT22;1329;51.384;7.122;2022-12-13T02:24:31;-1.60;99.90
2639;DHT22;1329;51.384;7.122;2022-12-13T02:27:10;-1.60;99.90
2639;DHT22;1329;51.384;7.122;2022-12-13T02:33:13;-1.60;99.90
2639;DHT22;1329;51.384;7.122;2022-12-13T02:35:52;-1.60;99.90
2639;DHT22;1329;51.384;7.122;2022-12-13T02:38:30;-1.60;99.90
2639;DHT22;1329;51.384;7.122;2022-12-13T02:41:13;-1.70;99.90
2639;DHT22;1329;51.384;7.122;2022-12-13T02:43:48;-1.70;99.90
2639;DHT22;1329;51.384;7.122;2022-12-13T02:46:21;-1.70;99.90
2639;DHT22;1329;51.384;7.122;2022-12-13T02:48:54;-1.70;99.90
2639;DHT22;1329;51.384;7.122;2022-12-13T02:51:23;-1.70;99.90
2639;DHT22;1329;51.384;7.122;2022-12-13T02:53:50;-1.70;99.90
2639;DHT22;1329;51.384;7.122;2022-12-13T02:56:17;-1.70;99.90
2639;DHT22;1329;51.384;7.122;2022-12-13T02:58:48;-1.70;99.90
2639;DHT22;1329;51.384;7.122;2022-12-13T03:01:31;-1.70;99.90
2639;DHT22;1329;51.384;7.122;2022-12-13T03:04:13;-1.70;99.90
2639;DHT22;1329;51.384;7.122;2022-12-13T03:06:57;-1.70;99.90
2639;DHT22;1329;51.384;7.122;2022-12-13T03:09:38;-1.70;99.90
2639;DHT22;1329;51.384;7.122;2022-12-13T03:12:19;-1.70;99.90
2639;DHT22;1329;51.384;7.122;2022-12-13T03:15:14;-1.70;99.90
2639;DHT22;1329;51.384;7.122;2022-12-13T03:17:48;-1.70;99.90
2639;DHT22;1329;51.384;7.122;2022-12-13T03:20:23;-1.70;99.90
2639;DHT22;1329;51.384;7.122;2022-12-13T03:22:54;-1.70;99.90
2639;DHT22;1329;51.384;7.122;2022-12-13T03:25:25;-1.70;99.90
2639;DHT22;1329;51.384;7.122;2022-12-13T03:27:53;-1.70;99.90
2639;DHT22;1329;51.384;7.122;2022-12-13T03:30:21;-1.70;99.90
2639;DHT22;1329;51.384;7.122;2022-12-13T03:32:48;-1.70;99.90
2639;DHT22;1329;51.384;7.122;2022-12-13T03:35:15;-1.70;99.90
2639;DHT22;1329;51.384;7.122;2022-12-13T03:37:43;-1.80;99.90
2639;DHT22;1329;51.384;7.122;2022-12-13T03:40:11;-1.70;99.90
2639;DHT22;1329;51.384;7.122;2022-12-13T03:42:38;-1.70;99.90
2639;DHT22;1329;51.384;7.122;2022-12-13T03:45:07;-1.80;99.90
2639;DHT22;1329;51.384;7.122;2022-12-13T03:47:34;-1.70;99.90
2639;DHT22;1329;51.384;7.122;2022-12-13T03:50:02;-1.80;99.90
2639;DHT22;1329;51.384;7.122;2022-12-13T03:52:29;-1.80;99.90
2639;DHT22;1329;51.384;7.122;2022-12-13T03:54:57;-1.80;99.90
2639;DHT22;1329;51.384;7.122;2022-12-13T03:57:24;-1.80;99.90
2639;DHT22;1329;51.384;7.122;2022-12-13T03:59:52;-1.80;99.90
2639;DHT22;1329;51.384;7.122;2022-12-13T04:02:19;-1.80;99.90
2639;DHT22;1329;51.384;7.122;2022-12-13T04:04:46;-1.80;99.90
2639;DHT22;1329;51.384;7.122;2022-12-13T04:07:13;-1.80;99.90
2639;DHT22;1329;51.384;7.122;2022-12-13T04:09:40;-1.80;99.90
2639;DHT22;1329;51.384;7.122;2022-12-13T04:12:08;-1.80;99.90
2639;DHT22;1329;51.384;7.122;2022-12-13T04:14:53;-1.80;99.90
2639;DHT22;1329;51.384;7.122;2022-12-13T04:17:20;-1.80;99.90
2639;DHT22;1329;51.384;7.122;2022-12-13T04:19:47;-1.80;99.90
2639;DHT22;1329;51.384;7.122;2022-12-13T04:22:14;-1.90;99.90
2639;DHT22;1329;51.384;7.122;2022-12-13T04:24:41;-1.90;99.90
2639;DHT22;1329;51.384;7.122;2022-12-13T04:27:09;-1.90;99.90
2639;DHT22;1329;51.384;7.122;2022-12-13T04:29:36;-2.00;99.90
2639;DHT22;1329;51.384;7.122;2022-12-13T04:32:04;-2.00;99.90
2639;DHT22;1329;51.384;7.122;2022-12-13T04:34:32;-2.00;99.90
2639;DHT22;1329;51.384;7.122;2022-12-13T04:36:59;-2.00;99.90
2639;DHT22;1329;51.384;7.122;2022-12-13T04:39:26;-2.10;99.90
2639;DHT22;1329;51.384;7.122;2022-12-13T04:41:53;-2.10;99.90
2639;DHT22;1329;51.384;7.122;2022-12-13T04:44:21;-2.10;99.90
2639;DHT22;1329;51.384;7.122;2022-12-13T04:46:48;-2.10;99.90
2639;DHT22;1329;51.384;7.122;2022-12-13T04:49:15;-2.10;99.90
2639;DHT22;1329;51.384;7.122;2022-12-13T04:51:42;-2.20;99.90
2639;DHT22;1329;51.384;7.122;2022-12-13T04:54:11;-2.20;99.90
2639;DHT22;1329;51.384;7.122;2022-12-13T04:56:38;-2.20;99.90
2639;DHT22;1329;51.384;7.122;2022-12-13T04:59:05;-2.20;99.90
2639;DHT22;1329;51.384;7.122;2022-12-13T05:01:33;-2.20;99.90
2639;DHT22;1329;51.384;7.122;2022-12-13T05:04:01;-2.20;99.90
2639;DHT22;1329;51.384;7.122;2022-12-13T05:06:28;-2.20;99.90
2639;DHT22;1329;51.384;7.122;2022-12-13T05:08:56;-2.30;99.90
2639;DHT22;1329;51.384;7.122;2022-12-13T05:11:23;-2.30;99.90
2639;DHT22;1329;51.384;7.122;2022-12-13T05:13:51;-2.30;99.90
2639;DHT22;1329;51.384;7.122;2022-12-13T05:16:19;-2.30;99.90
2639;DHT22;1329;51.384;7.122;2022-12-13T05:18:47;-2.30;99.90
2639;DHT22;1329;51.384;7.122;2022-12-13T05:21:15;-2.40;99.90
2639;DHT22;1329;51.384;7.122;2022-12-13T05:23:42;-2.30;99.90
2639;DHT22;1329;51.384;7.122;2022-12-13T05:26:09;-2.40;99.90
2639;DHT22;1329;51.384;7.122;2022-12-13T05:28:36;-2.40;99.90
2639;DHT22;1329;51.384;7.122;2022-12-13T05:31:07;-2.40;99.90
2639;DHT22;1329;51.384;7.122;2022-12-13T05:33:35;-2.40;99.90
2639;DHT22;1329;51.384;7.122;2022-12-13T05:36:04;-2.40;99.90
2639;DHT22;1329;51.384;7.122;2022-12-13T05:38:31;-2.40;99.90
2639;DHT22;1329;51.384;7.122;2022-12-13T05:40:59;-2.40;99.90
2639;DHT22;1329;51.384;7.122;2022-12-13T05:43:26;-2.50;99.90
2639;DHT22;1329;51.384;7.122;2022-12-13T05:45:53;-2.50;99.90
2639;DHT22;1329;51.384;7.122;2022-12-13T05:48:20;-2.50;99.90
2639;DHT22;1329;51.384;7.122;2022-12-13T05:50:49;-2.50;99.90
2639;DHT22;1329;51.384;7.122;2022-12-13T05:53:17;-2.50;99.90
2639;DHT22;1329;51.384;7.122;2022-12-13T05:55:44;-2.50;99.90
2639;DHT22;1329;51.384;7.122;2022-12-13T05:58:11;-2.50;99.90
2639;DHT22;1329;51.384;7.122;2022-12-13T06:00:39;-2.50;99.90
2639;DHT22;1329;51.384;7.122;2022-12-13T06:03:07;-2.50;99.90
2639;DHT22;1329;51.384;7.122;2022-12-13T06:05:34;-2.50;99.90
2639;DHT22;1329;51.384;7.122;2022-12-13T06:08:01;-2.50;99.90
2639;DHT22;1329;51.384;7.122;2022-12-13T06:10:29;-2.50;99.90
2639;DHT22;1329;51.384;7.122;2022-12-13T06:12:56;-2.50;99.90
2639;DHT22;1329;51.384;7.122;2022-12-13T06:15:23;-2.50;99.90
2639;DHT22;1329;51.384;7.122;2022-12-13T06:17:50;-2.60;99.90
2639;DHT22;1329;51.384;7.122;2022-12-13T06:20:17;-2.60;99.90
2639;DHT22;1329;51.384;7.122;2022-12-13T06:22:45;-2.60;99.90
2639;DHT22;1329;51.384;7.122;2022-12-13T06:25:13;-2.60;99.90
2639;DHT22;1329;51.384;7.122;2022-12-13T06:27:42;-2.50;99.90
2639;DHT22;1329;51.384;7.122;2022-12-13T06:30:10;-2.60;99.90
2639;DHT22;1329;51.384;7.122;2022-12-13T06:32:38;-2.60;99.90
2639;DHT22;1329;51.384;7.122;2022-12-13T06:35:05;-2.70;99.90
2639;DHT22;1329;51.384;7.122;2022-12-13T06:37:34;-2.70;99.90
2639;DHT22;1329;51.384;7.122;2022-12-13T06:40:01;-2.70;99.90
2639;DHT22;1329;51.384;7.122;2022-12-13T06:42:28;-2.70;99.90
2639;DHT22;1329;51.384;7.122;2022-12-13T06:44:57;-2.70;99.90
2639;DHT22;1329;51.384;7.122;2022-12-13T06:47:24;-2.70;99.90
2639;DHT22;1329;51.384;7.122;2022-12-13T06:49:52;-2.80;99.90
2639;DHT22;1329;51.384;7.122;2022-12-13T06:52:19;-2.80;99.90
2639;DHT22;1329;51.384;7.122;2022-12-13T06:54:46;-2.80;99.90
2639;DHT22;1329;51.384;7.122;2022-12-13T06:57:15;-2.80;99.90
2639;DHT22;1329;51.384;7.122;2022-12-13T06:59:42;-2.90;99.90
2639;DHT22;1329;51.384;7.122;2022-12-13T07:02:13;-2.90;99.90
2639;DHT22;1329;51.384;7.122;2022-12-13T07:04:40;-2.90;99.90
2639;DHT22;1329;51.384;7.122;2022-12-13T07:07:08;-2.90;99.90
2639;DHT22;1329;51.384;7.122;2022-12-13T07:09:35;-2.90;99.90
2639;DHT22;1329;51.384;7.122;2022-12-13T07:12:03;-3.00;99.90
2639;DHT22;1329;51.384;7.122;2022-12-13T07:14:30;-3.00;99.90
2639;DHT22;1329;51.384;7.122;2022-12-13T07:16:58;-3.00;99.90
2639;DHT22;1329;51.384;7.122;2022-12-13T07:19:26;-3.00;99.90
2639;DHT22;1329;51.384;7.122;2022-12-13T07:21:53;-3.00;99.90
2639;DHT22;1329;51.384;7.122;2022-12-13T07:24:24;-3.00;99.90
2639;DHT22;1329;51.384;7.122;2022-12-13T07:26:52;-3.00;99.90
2639;DHT22;1329;51.384;7.122;2022-12-13T07:29:21;-3.10;99.90
2639;DHT22;1329;51.384;7.122;2022-12-13T07:31:52;-3.10;99.90
2639;DHT22;1329;51.384;7.122;2022-12-13T07:34:19;-3.10;99.90
2639;DHT22;1329;51.384;7.122;2022-12-13T07:36:49;-3.10;99.90
2639;DHT22;1329;51.384;7.122;2022-12-13T07:39:17;-3.00;99.90
2639;DHT22;1329;51.384;7.122;2022-12-13T07:41:44;-3.10;99.90
2639;DHT22;1329;51.384;7.122;2022-12-13T07:44:11;-3.10;99.90
2639;DHT22;1329;51.384;7.122;2022-12-13T07:46:38;-3.10;99.90
2639;DHT22;1329;51.384;7.122;2022-12-13T07:49:05;-3.10;99.90
2639;DHT22;1329;51.384;7.122;2022-12-13T07:51:33;-3.10;99.90
2639;DHT22;1329;51.384;7.122;2022-12-13T07:54:04;-3.10;99.90
2639;DHT22;1329;51.384;7.122;2022-12-13T07:56:34;-3.10;99.90
2639;DHT22;1329;51.384;7.122;2022-12-13T07:59:03;-3.10;99.90
2639;DHT22;1329;51.384;7.122;2022-12-13T08:01:31;-3.10;99.90
2639;DHT22;1329;51.384;7.122;2022-12-13T08:03:59;-3.10;99.90
2639;DHT22;1329;51.384;7.122;2022-12-13T08:06:26;-3.10;99.90
2639;DHT22;1329;51.384;7.122;2022-12-13T08:08:54;-3.10;99.90
2639;DHT22;1329;51.384;7.122;2022-12-13T08:11:25;-3.10;99.90
2639;DHT22;1329;51.384;7.122;2022-12-13T08:13:53;-3.00;99.90
2639;DHT22;1329;51.384;7.122;2022-12-13T08:16:20;-3.10;99.90
2639;DHT22;1329;51.384;7.122;2022-12-13T08:18:49;-3.00;99.90
2639;DHT22;1329;51.384;7.122;2022-12-13T08:21:16;-3.00;99.90
2639;DHT22;1329;51.384;7.122;2022-12-13T08:23:43;-3.00;99.90
2639;DHT22;1329;51.384;7.122;2022-12-13T08:26:10;-3.00;99.90
2639;DHT22;1329;51.384;7.122;2022-12-13T08:28:41;-3.00;99.90
2639;DHT22;1329;51.384;7.122;2022-12-13T08:31:10;-3.00;99.90
2639;DHT22;1329;51.384;7.122;2022-12-13T08:33:39;-3.10;99.90
2639;DHT22;1329;51.384;7.122;2022-12-13T08:36:09;-2.90;99.90
2639;DHT22;1329;51.384;7.122;2022-12-13T08:38:37;-2.90;99.90
2639;DHT22;1329;51.384;7.122;2022-12-13T08:41:05;-2.90;99.90
2639;DHT22;1329;51.384;7.122;2022-12-13T08:43:33;-2.90;99.90
2639;DHT22;1329;51.384;7.122;2022-12-13T08:46:02;-2.90;99.90
2639;DHT22;1329;51.384;7.122;2022-12-13T08:48:30;-2.90;99.90
2639;DHT22;1329;51.384;7.122;2022-12-13T08:50:59;-2.90;99.90
2639;DHT22;1329;51.384;7.122;2022-12-13T08:53:27;-2.80;99.90
2639;DHT22;1329;51.384;7.122;2022-12-13T08:55:59;-2.80;99.90
2639;DHT22;1329;51.384;7.122;2022-12-13T08:58:27;-2.80;99.90
2639;DHT22;1329;51.384;7.122;2022-12-13T09:00:54;-2.70;99.90
2639;DHT22;1329;51.384;7.122;2022-12-13T09:03:23;-2.70;99.90
2639;DHT22;1329;51.384;7.122;2022-12-13T09:05:50;-2.60;99.90
2639;DHT22;1329;51.384;7.122;2022-12-13T09:08:19;-2.60;99.90
2639;DHT22;1329;51.384;7.122;2022-12-13T09:10:55;-2.60;99.90
2639;DHT22;1329;51.384;7.122;2022-12-13T09:13:23;-2.50;99.90
2639;DHT22;1329;51.384;7.122;2022-12-13T09:15:50;-2.50;99.90
2639;DHT22;1329;51.384;7.122;2022-12-13T09:18:17;-2.50;99.90
2639;DHT22;1329;51.384;7.122;2022-12-13T09:20:46;-2.50;99.90
2639;DHT22;1329;51.384;7.122;2022-12-13T09:23:16;-2.40;99.90
2639;DHT22;1329;51.384;7.122;2022-12-13T09:25:44;-2.40;99.90
2639;DHT22;1329;51.384;7.122;2022-12-13T09:28:11;-2.40;99.90
2639;DHT22;1329;51.384;7.122;2022-12-13T09:30:38;-2.40;99.90
2639;DHT22;1329;51.384;7.122;2022-12-13T09:33:05;-2.30;99.90
2639;DHT22;1329;51.384;7.122;2022-12-13T09:35:33;-2.30;99.90
2639;DHT22;1329;51.384;7.122;2022-12-13T09:38:04;-2.30;99.90
2639;DHT22;1329;51.384;7.122;2022-12-13T09:40:39;-2.30;99.90
2639;DHT22;1329;51.384;7.122;2022-12-13T09:43:11;-2.20;99.90
2639;DHT22;1329;51.384;7.122;2022-12-13T09:45:47;-2.20;99.90
2639;DHT22;1329;51.384;7.122;2022-12-13T09:48:18;-2.20;99.90
2639;DHT22;1329;51.384;7.122;2022-12-13T09:50:47;-2.10;99.90
2639;DHT22;1329;51.384;7.122;2022-12-13T09:53:18;-2.10;99.90
2639;DHT22;1329;51.384;7.122;2022-12-13T09:55:50;-2.10;99.90
2639;DHT22;1329;51.384;7.122;2022-12-13T09:58:20;-2.10;99.90
2639;DHT22;1329;51.384;7.122;2022-12-13T10:00:52;-2.00;99.90
2639;DHT22;1329;51.384;7.122;2022-12-13T10:03:22;-2.00;99.90
2639;DHT22;1329;51.384;7.122;2022-12-13T10:05:56;-2.00;99.90
2639;DHT22;1329;51.384;7.122;2022-12-13T10:08:29;-1.90;99.90
2639;DHT22;1329;51.384;7.122;2022-12-13T10:11:01;-1.90;99.90
2639;DHT22;1329;51.384;7.122;2022-12-13T10:13:37;-1.80;99.90
2639;DHT22;1329;51.384;7.122;2022-12-13T10:16:13;-1.80;99.90
2639;DHT22;1329;51.384;7.122;2022-12-13T10:18:44;-1.80;99.90
2639;DHT22;1329;51.384;7.122;2022-12-13T10:21:16;-1.70;99.90
2639;DHT22;1329;51.384;7.122;2022-12-13T10:23:47;-1.70;99.90
2639;DHT22;1329;51.384;7.122;2022-12-13T10:26:15;-1.70;99.90
2639;DHT22;1329;51.384;7.122;2022-12-13T10:28:46;-1.60;99.90
2639;DHT22;1329;51.384;7.122;2022-12-13T10:31:17;-1.60;99.90
2639;DHT22;1329;51.384;7.122;2022-12-13T10:33:53;-1.50;99.90
2639;DHT22;1329;51.384;7.122;2022-12-13T10:36:31;-1.50;99.90
2639;DHT22;1329;51.384;7.122;2022-12-13T10:39:02;-1.40;99.90
2639;DHT22;1329;51.384;7.122;2022-12-13T10:41:34;-1.40;99.90
2639;DHT22;1329;51.384;7.122;2022-12-13T10:44:16;-1.30;99.90
2639;DHT22;1329;51.384;7.122;2022-12-13T10:46:52;-1.30;99.90
2639;DHT22;1329;51.384;7.122;2022-12-13T10:49:37;-1.30;99.90
2639;DHT22;1329;51.384;7.122;2022-12-13T10:52:18;-1.20;99.90
2639;DHT22;1329;51.384;7.122;2022-12-13T10:54:49;-1.20;99.90
2639;DHT22;1329;51.384;7.122;2022-12-13T10:57:18;-1.10;99.90
2639;DHT22;1329;51.384;7.122;2022-12-13T10:59:51;-1.10;99.90
2639;DHT22;1329;51.384;7.122;2022-12-13T11:02:31;-1.00;99.90
2639;DHT22;1329;51.384;7.122;2022-12-13T11:05:21;-1.00;99.90
2639;DHT22;1329;51.384;7.122;2022-12-13T11:07:50;-0.90;99.90
2639;DHT22;1329;51.384;7.122;2022-12-13T11:10:23;-0.90;99.90
2639;DHT22;1329;51.384;7.122;2022-12-13T11:12:56;-0.90;99.90
2639;DHT22;1329;51.384;7.122;2022-12-13T11:15:29;-0.80;99.90
2639;DHT22;1329;51.384;7.122;2022-12-13T11:18:00;-0.80;99.90
2639;DHT22;1329;51.384;7.122;2022-12-13T11:20:36;-0.70;99.90
2639;DHT22;1329;51.384;7.122;2022-12-13T11:23:05;-0.60;99.90
2639;DHT22;1329;51.384;7.122;2022-12-13T11:25:40;-0.60;99.90
2639;DHT22;1329;51.384;7.122;2022-12-13T11:28:26;-0.50;99.90
2639;DHT22;1329;51.384;7.122;2022-12-13T11:31:12;-0.40;99.90
2639;DHT22;1329;51.384;7.122;2022-12-13T11:33:52;-0.40;99.90
2639;DHT22;1329;51.384;7.122;2022-12-13T11:36:36;-0.30;99.90
2639;DHT22;1329;51.384;7.122;2022-12-13T11:39:23;-0.30;99.90
2639;DHT22;1329;51.384;7.122;2022-12-13T11:41:59;-0.10;99.90
2639;DHT22;1329;51.384;7.122;2022-12-13T11:44:41;-0.10;99.90
2639;DHT22;1329;51.384;7.122;2022-12-13T11:47:17;-0.10;99.90
2639;DHT22;1329;51.384;7.122;2022-12-13T11:49:50;0.00;99.90
2639;DHT22;1329;51.384;7.122;2022-12-13T11:52:23;0.00;99.90
2639;DHT22;1329;51.384;7.122;2022-12-13T11:55:01;0.10;99.90
2639;DHT22;1329;51.384;7.122;2022-12-13T11:57:45;0.10;99.90
2639;DHT22;1329;51.384;7.122;2022-12-13T12:00:28;0.20;99.90
2639;DHT22;1329;51.384;7.122;2022-12-13T12:03:05;0.20;99.90
2639;DHT22;1329;51.384;7.122;2022-12-13T12:05:47;0.30;99.90
2639;DHT22;1329;51.384;7.122;2022-12-13T12:08:22;0.40;99.90
2639;DHT22;1329;51.384;7.122;2022-12-13T12:11:01;0.40;99.90
2639;DHT22;1329;51.384;7.122;2022-12-13T12:13:50;0.50;99.90
2639;DHT22;1329;51.384;7.122;2022-12-13T12:16:32;0.60;99.90
2639;DHT22;1329;51.384;7.122;2022-12-13T12:19:24;0.70;99.90
2639;DHT22;1329;51.384;7.122;2022-12-13T12:22:19;0.70;99.90
2639;DHT22;1329;51.384;7.122;2022-12-13T12:25:24;0.80;99.90
2639;DHT22;1329;51.384;7.122;2022-12-13T12:28:06;0.90;99.90
2639;DHT22;1329;51.384;7.122;2022-12-13T12:30:54;0.90;99.90
2639;DHT22;1329;51.384;7.122;2022-12-13T12:33:42;1.00;99.90
2639;DHT22;1329;51.384;7.122;2022-12-13T12:43:33;1.20;99.90
2639;DHT22;1329;51.384;7.122;2022-12-13T12:46:43;1.20;99.90
2639;DHT22;1329;51.384;7.122;2022-12-13T12:49:53;1.30;99.90
2639;DHT22;1329;51.384;7.122;2022-12-13T12:53:10;1.30;99.90
2639;DHT22;1329;51.384;7.122;2022-12-13T12:56:24;1.40;99.90
2639;DHT22;1329;51.384;7.122;2022-12-13T12:59:24;1.40;99.90
2639;DHT22;1329;51.384;7.122;2022-12-13T13:02:27;1.40;99.90
2639;DHT22;1329;51.384;7.122;2022-12-13T13:05:20;1.40;99.90
2639;DHT22;1329;51.384;7.122;2022-12-13T13:08:00;1.40;99.90
2639;DHT22;1329;51.384;7.122;2022-12-13T13:10:37;1.30;99.90
2639;DHT22;1329;51.384;7.122;2022-12-13T13:13:35;1.40;99.90
2639;DHT22;1329;51.384;7.122;2022-12-13T13:16:35;1.40;99.90
2639;DHT22;1329;51.384;7.122;2022-12-13T13:20:10;1.50;99.90
2639;DHT22;1329;51.384;7.122;2022-12-13T13:22:57;1.50;99.90
2639;DHT22;1329;51.384;7.122;2022-12-13T13:25:33;1.50;99.90
2639;DHT22;1329;51.384;7.122;2022-12-13T13:28:22;1.50;99.90
2639;DHT22;1329;51.384;7.122;2022-12-13T13:31:04;1.50;99.90
2639;DHT22;1329;51.384;7.122;2022-12-13T13:33:48;1.60;99.90
2639;DHT22;1329;51.384;7.122;2022-12-13T13:37:03;1.60;99.90
2639;DHT22;1329;51.384;7.122;2022-12-13T13:40:22;1.60;99.90
2639;DHT22;1329;51.384;7.122;2022-12-13T13:43:16;1.60;99.90
2639;DHT22;1329;51.384;7.122;2022-12-13T13:46:08;1.70;99.90
2639;DHT22;1329;51.384;7.122;2022-12-13T13:48:51;1.70;99.90
2639;DHT22;1329;51.384;7.122;2022-12-13T13:52:09;1.70;99.90
2639;DHT22;1329;51.384;7.122;2022-12-13T13:55:26;1.80;99.90
2639;DHT22;1329;51.384;7.122;2022-12-13T14:09:42;1.70;99.90
2639;DHT22;1329;51.384;7.122;2022-12-13T14:16:30;1.70;99.90
2639;DHT22;1329;51.384;7.122;2022-12-13T14:23:13;1.60;99.90
2639;DHT22;1329;51.384;7.122;2022-12-13T14:29:09;1.60;99.90
2639;DHT22;1329;51.384;7.122;2022-12-13T14:32:07;1.60;99.90
2639;DHT22;1329;51.384;7.122;2022-12-13T14:34:51;1.50;99.90
2639;DHT22;1329;51.384;7.122;2022-12-13T14:37:42;1.60;99.90
2639;DHT22;1329;51.384;7.122;2022-12-13T14:40:46;1.50;99.90
2639;DHT22;1329;51.384;7.122;2022-12-13T14:43:35;1.50;99.90
2639;DHT22;1329;51.384;7.122;2022-12-13T14:46:29;1.50;99.90
2639;DHT22;1329;51.384;7.122;2022-12-13T14:49:19;1.50;99.90
2639;DHT22;1329;51.384;7.122;2022-12-13T14:52:05;1.40;99.90
2639;DHT22;1329;51.384;7.122;2022-12-13T14:58:38;1.40;99.90
2639;DHT22;1329;51.384;7.122;2022-12-13T15:01:30;1.30;99.90
2639;DHT22;1329;51.384;7.122;2022-12-13T15:04:21;1.30;99.90
2639;DHT22;1329;51.384;7.122;2022-12-13T15:07:21;1.30;99.90
2639;DHT22;1329;51.384;7.122;2022-12-13T15:10:14;1.20;99.90
2639;DHT22;1329;51.384;7.122;2022-12-13T15:13:21;1.20;99.90
2639;DHT22;1329;51.384;7.122;2022-12-13T15:16:30;1.10;99.90
2639;DHT22;1329;51.384;7.122;2022-12-13T15:19:18;1.10;99.90
2639;DHT22;1329;51.384;7.122;2022-12-13T15:21:57;1.10;99.90
2639;DHT22;1329;51.384;7.122;2022-12-13T15:24:50;1.00;99.90
2639;DHT22;1329;51.384;7.122;2022-12-13T15:27:32;0.90;99.90
2639;DHT22;1329;51.384;7.122;2022-12-13T15:30:25;0.90;99.90
2639;DHT22;1329;51.384;7.122;2022-12-13T15:33:19;0.90;99.90
2639;DHT22;1329;51.384;7.122;2022-12-13T15:36:16;0.90;99.90
2639;DHT22;1329;51.384;7.122;2022-12-13T15:39:00;0.80;99.90
2639;DHT22;1329;51.384;7.122;2022-12-13T15:41:50;0.80;99.90
2639;DHT22;1329;51.384;7.122;2022-12-13T15:44:39;0.80;99.90
2639;DHT22;1329;51.384;7.122;2022-12-13T15:47:18;0.70;99.90
2639;DHT22;1329;51.384;7.122;2022-12-13T15:50:28;0.70;99.90
2639;DHT22;1329;51.384;7.122;2022-12-13T15:55:50;0.70;99.90
2639;DHT22;1329;51.384;7.122;2022-12-13T15:58:26;0.70;99.90
2639;DHT22;1329;51.384;7.122;2022-12-13T16:00:58;0.50;99.90
2639;DHT22;1329;51.384;7.122;2022-12-13T16:03:39;0.60;99.90
2639;DHT22;1329;51.384;7.122;2022-12-13T16:06:17;0.60;99.90
2639;DHT22;1329;51.384;7.122;2022-12-13T16:08:56;0.60;99.90
2639;DHT22;1329;51.384;7.122;2022-12-13T16:11:33;0.60;99.90
2639;DHT22;1329;51.384;7.122;2022-12-13T16:17:23;0.60;99.90
2639;DHT22;1329;51.384;7.122;2022-12-13T16:19:59;0.60;99.90
2639;DHT22;1329;51.384;7.122;2022-12-13T16:22:30;0.60;99.90
2639;DHT22;1329;51.384;7.122;2022-12-13T16:25:01;0.60;99.90
2639;DHT22;1329;51.384;7.122;2022-12-13T16:27:43;0.60;99.90
2639;DHT22;1329;51.384;7.122;2022-12-13T16:30:22;0.60;99.90
2639;DHT22;1329;51.384;7.122;2022-12-13T16:32:58;0.60;99.90
2639;DHT22;1329;51.384;7.122;2022-12-13T16:35:27;0.60;99.90
2639;DHT22;1329;51.384;7.122;2022-12-13T16:38:08;0.60;99.90
2639;DHT22;1329;51.384;7.122;2022-12-13T16:40:42;0.50;99.90
2639;DHT22;1329;51.384;7.122;2022-12-13T16:43:27;0.60;99.90
2639;DHT22;1329;51.384;7.122;2022-12-13T16:46:03;0.50;99.90
2639;DHT22;1329;51.384;7.122;2022-12-13T16:48:36;0.50;99.90
2639;DHT22;1329;51.384;7.122;2022-12-13T16:51:10;0.50;99.90
2639;DHT22;1329;51.384;7.122;2022-12-13T16:53:56;0.50;99.90
2639;DHT22;1329;51.384;7.122;2022-12-13T16:56:32;0.50;99.90
2639;DHT22;1329;51.384;7.122;2022-12-13T16:58:59;0.50;99.90
2639;DHT22;1329;51.384;7.122;2022-12-13T17:01:33;0.50;99.90
2639;DHT22;1329;51.384;7.122;2022-12-13T17:04:02;0.50;99.90
2639;DHT22;1329;51.384;7.122;2022-12-13T17:06:32;0.50;99.90
2639;DHT22;1329;51.384;7.122;2022-12-13T17:09:03;0.60;99.90
2639;DHT22;1329;51.384;7.122;2022-12-13T17:11:34;0.50;99.90
2639;DHT22;1329;51.384;7.122;2022-12-13T17:14:07;0.50;99.90
2639;DHT22;1329;51.384;7.122;2022-12-13T17:16:35;0.50;99.90
2639;DHT22;1329;51.384;7.122;2022-12-13T17:19:08;0.50;99.90
2639;DHT22;1329;51.384;7.122;2022-12-13T17:21:38;0.50;99.90
2639;DHT22;1329;51.384;7.122;2022-12-13T17:24:07;0.50;99.90
2639;DHT22;1329;51.384;7.122;2022-12-13T17:26:36;0.50;99.90
2639;DHT22;1329;51.384;7.122;2022-12-13T17:29:12;0.50;99.90
2639;DHT22;1329;51.384;7.122;2022-12-13T17:31:43;0.50;99.90
2639;DHT22;1329;51.384;7.122;2022-12-13T17:34:16;0.50;99.90
2639;DHT22;1329;51.384;7.122;2022-12-13T17:36:47;0.40;99.90
2639;DHT22;1329;51.384;7.122;2022-12-13T17:39:14;0.40;99.90